Pontesbury, United Kingdom
Current Conditions -  °F | °C
As of 5:50 AM on Wednesday 28 Jan 2015 (Local Time) from EGOS Reporting Station
Broken Clouds Broken Clouds  
Wind Chill: 50°   Ceiling: 1700
Heat Index: 50°   Visibility: 6mi
Dew Point: 45°   Wind: 17mph
Humidity: 82%   Direction: 220°SW
Pressure: 29.59"   Gusts: NA
Location:  52.65°N, 2.89°W
Report Text: EGOS 280550Z AUTO 22015KT 9999 BKN017/// 10/07 Q1002
Loading
Personal Weather Stations






























Interactive Weather Map New forecast layout! Learn more

10-Day Weather Forecast

Advertisements
Track Severe Weather on mobile